KDEQ

J Lynn Helms Sevier County Airport

De Queen, Arkansas, USA
METAR KDEQ 231410Z AUTO 24003KT 2SM RA BR FEW009 BKN034 OVC049 09/09 A3024 RMK AO2 T00940094 PNO $
Observed Flight Rules
Feb-23 @ 14:10 UTC (29 minutes ago) Instrument Flight Rules
Wind Visibility Clouds Conditions
240° at 3 knots 2 miles
  • Few at 900' AGL
  • Broken at 3,400' AGL
  • Overcast at 4,900' AGL
  • Rain
  • Mist
Temperatures Readings
Current 9°C / 48°F
Dewpoint 9°C / 48°F
Humidity 100%
Altimeter 30.24" Hg
Pressure 1024 hPa
Elevation 106
METAR KDEQ 231410Z AUTO 24003KT 2SM RA BR FEW009 BKN034 OVC049 09/09 A3024 RMK AO2 T00940094 PNO $
Observed Flight Rules
Feb-23 @ 14:10 UTC
(29 minutes ago)
IFR
Wind Visibility
240° at 3 knots 2 miles
Clouds
  • Few at 900' AGL
  • Broken at 3,400' AGL
  • Overcast at 4,900' AGL
Conditions
  • Rain
  • Mist
Temperature Dewpoint
9°C / 48°F 9°C / 48°F
Humidity Altimeter Pressure
100% 30.24" Hg 1024 hPa